Terminal Aerodrome Forecast
Issued by NWS

Home | Current Version | Previous Version | Text Only | Print | Product List | Glossary On
Versions: 1 2 3 4 5 6 7 8 9 10 11 12
400
FTUS45 KVEF 172320
TAFVGT
TAF
KVGT 172320Z 1800/1824 25022G30KT P6SM FEW080 SCT200
     FM180100 34020G30KT P6SM FEW080 SCT200
     FM180500 35012KT P6SM SKC
     FM182000 VRB05KT P6SM SKC=

USA.gov is the U.S. government's official web portal to all federal, state and local government web resources and services.